Nearby METAR Reports

 

YSRI - Richmond (aus-Af, Australia
Distance from station: WSW 35km
Updated: 19/01/2019 19:00
Overcast
Overcast
 Wind from SSE
Wind: SSE 15 km/h
Temperature: 24°C
Dew Point: 19°C
Humidity: 74%
Barometer: 1018 hPa
Clouds: Overcast
Visibility: 10 km
Cloud details: Overcast 640 m
2019/01/19 08:00 YSRI 190800Z AUTO 16008KT 9999 // OVC021 24/19 Q1018
YSSY - Sydney Intl Airp, Australia
Distance from station: S 47km
Updated: 19/01/2019 19:00
Overcast
Overcast
 Wind from S
Wind: S 24 km/h
Temperature: 23°C
Dew Point: 20°C
Humidity: 83%
Barometer: 1018 hPa
Clouds: Overcast
Visibility: 10 km
Cloud details: Few Clouds 488 m
Overcast 762 m
2019/01/19 08:00 YSSY 190800Z 17013KT 9999 FEW016 OVC025 23/20 Q1018 NOSIG
YWLM - Williamtown Arp, Australia
Distance from station: NE 104km
Updated: 19/01/2019 19:09
Overcast
Overcast
 Wind from S
Wind: S 22 km/h
Temperature: 23°C
Dew Point: 20°C
Humidity: 83%
Barometer: 1018 hPa
Clouds: Overcast
Visibility: 6 km
Cloud details: Overcast 427 m
2019/01/19 08:09 YWLM 190809Z AUTO 19012KT 6000 // OVC014 23/20 Q1018
 
YSNW - Nowra (aus-Navy), Australia
Distance from station: SSW 168km
Updated: 19/01/2019 19:09
Partly cloudy
Partly cloudy
 Wind from SSE
Wind: SSE 13 km/h
Temperature: 19°C
Dew Point: 19°C
Humidity: 100%
Barometer: 1020 hPa
Clouds: Partly cloudy
Visibility: 10 km
Cloud details: Partly cloudy 244 m
Partly cloudy 427 m
Partly cloudy 549 m
2019/01/19 08:09 YSNW 190809Z AUTO 15007KT 9999 // SCT008 SCT014 SCT018 19/19 Q1020
YMDG - Mudgee Arpt, Australia
Distance from station: NW 177km
Updated: 19/01/2019 19:00
Clear
Clear
 Wind from SW
Wind: SW 9 km/h
Temperature: 35°C
Dew Point: 13°C
Humidity: 26%
Barometer: 1015 hPa
Clouds: Clear
Visibility: 10 km
2019/01/19 08:00 YMDG 190800Z AUTO 23005KT 9999 // NCD 35/13 Q1015
YTRE - Taree Airport, Australia
Distance from station: NE 224km
Updated: 19/01/2019 19:00
Overcast
Overcast
 Wind from SSW
Wind: SSW 22 km/h
Temperature: 27°C
Heat Index: 29°C
Dew Point: 22°C
Humidity: 74%
Barometer: 1017 hPa
Clouds: Overcast
Visibility: 10 km
Cloud details: Partly cloudy 701 m
Overcast 884 m
2019/01/19 08:00 YTRE 190800Z AUTO 20012KT 9999 // SCT023 OVC029 27/22 Q1017
 
YSCB - Canberra (civ/Mi, Australia
Distance from station: SW 265km
Updated: 19/01/2019 19:00
Clear
Clear
 Wind from E
Wind: E 33 km/h
Temperature: 22°C
Dew Point: 16°C
Humidity: 69%
Barometer: 1018 hPa
Clouds: Clear
Visibility: 10 km
2019/01/19 08:00 YSCB 190800Z AUTO 09018KT 9999 // NCD 22/16 Q1018
YSTW - Tamworth Airport, Australia
Distance from station: N 275km
Updated: 19/01/2019 19:12
Mostly cloudy
Mostly cloudy
 Wind from ESE
Wind: ESE 35 km/h
Temperature: 36°C
Dew Point: 12°C
Humidity: 23%
Barometer: 1013 hPa
Clouds: Mostly cloudy
Visibility: 10 km
Cloud details: Mostly cloudy 3658 m
2019/01/19 08:12 YSTW 190812Z AUTO 11019KT 070V210 9999 // BKN120 36/12 Q1013
YSDU - Dubbo, Australia
Distance from station: WNW 280km
Updated: 19/01/2019 19:00
Clear
Clear
 Wind from S
Wind: S 20 km/h
Temperature: 37°C
Dew Point: 10°C
Humidity: 19%
Barometer: 1013 hPa
Clouds: Clear
Visibility: 10 km
2019/01/19 08:00 YSDU 190800Z AUTO 17011KT 9999 // NCD 37/10 Q1013
 
YPMQ - Port Macquarie, Australia
Distance from station: NE 284km
Updated: 19/01/2019 17:53
NOT Current
Overcast
Overcast
 Wind from SSW
Wind: SSW 17 km/h
Temperature: 26°C
Dew Point: 23°C
Humidity: 84%
Barometer: 1015 hPa
Clouds: Overcast
Visibility: 10 km
Cloud details: Overcast 518 m
2019/01/19 06:53 YPMQ 190653Z AUTO 20009KT 9999 // OVC017 26/23 Q1015
YCBB - Coonabarabran, Australia
Distance from station: NW 300km
Updated: 19/01/2019 19:00
Clear
Clear
 Wind from S
Wind: S 17 km/h
Temperature: 36°C
Dew Point: 8°C
Humidity: 18%
Barometer: 1016 hPa
Clouds: Clear
Visibility: 10 km
2019/01/19 08:00 YCBB 190800Z AUTO 18009KT 9999 // NCD 36/08 Q1016